BRJ107 EHAM-LIML
Flight info
| Callsign | BRJ107 |
|---|---|
| Flight time | 1h 12m |
| Altitude | 40000 |
| Route | LOPIK N852 GESLO DCT LIMGO DCT SUTAL DCT GTQ DCT DEVDI DCT ODINA |
| Aircraft | C750/M-SBDE3FGHRWXY/S |
Departure
| Time | 2026-05-05 19:36 |
|---|---|
| Airport | Amsterdam Airport Schiphol (EHAM) |
Arrival
| Time | 2026-05-05 20:48 |
|---|---|
| Airport | Milano Linate Airport (LIML) |
| Time | Latitude | Longitude | Altitude | Speed | Heading |
|---|---|---|---|---|---|
| 2026-05-05 19:18 | 52.31124 | 4.80464 | -4 ft | 0 kts | 130° |
| 2026-05-05 19:18 | 52.31125 | 4.80464 | -4 ft | 0 kts | 130° |
| 2026-05-05 19:27 | 52.31125 | 4.80463 | -4 ft | 0 kts | 130° |
| 2026-05-05 19:29 | 52.31125 | 4.80464 | -4 ft | 0 kts | 133° |
| 2026-05-05 19:29 | 52.31120 | 4.80462 | -4 ft | 1 kts | 190° |
| 2026-05-05 19:30 | 52.31121 | 4.80447 | -4 ft | 2 kts | 313° |
| 2026-05-05 19:30 | 52.31148 | 4.80457 | -4 ft | 7 kts | 31° |
| 2026-05-05 19:30 | 52.31193 | 4.80524 | -4 ft | 9 kts | 44° |
| 2026-05-05 19:30 | 52.31233 | 4.80553 | -4 ft | 4 kts | 349° |
| 2026-05-05 19:31 | 52.31248 | 4.80528 | -4 ft | 3 kts | 292° |
| 2026-05-05 19:31 | 52.31248 | 4.80525 | -4 ft | 0 kts | 285° |
| 2026-05-05 19:31 | 52.31249 | 4.80494 | -4 ft | 6 kts | 266° |
| 2026-05-05 19:32 | 52.31241 | 4.80433 | -4 ft | 10 kts | 253° |
| 2026-05-05 19:32 | 52.31177 | 4.80325 | -4 ft | 17 kts | 222° |
| 2026-05-05 19:32 | 52.31029 | 4.80113 | -4 ft | 26 kts | 222° |
| 2026-05-05 19:32 | 52.30932 | 4.79974 | -4 ft | 30 kts | 220° |
| 2026-05-05 19:33 | 52.30781 | 4.79758 | -4 ft | 28 kts | 220° |
| 2026-05-05 19:33 | 52.30637 | 4.79553 | -4 ft | 27 kts | 221° |
| 2026-05-05 19:33 | 52.30501 | 4.79357 | -4 ft | 26 kts | 221° |
| 2026-05-05 19:33 | 52.30366 | 4.79170 | -5 ft | 25 kts | 220° |
| 2026-05-05 19:34 | 52.30241 | 4.78985 | -5 ft | 24 kts | 218° |
| 2026-05-05 19:34 | 52.30119 | 4.78811 | -4 ft | 23 kts | 221° |
| 2026-05-05 19:34 | 52.30038 | 4.78681 | -4 ft | 10 kts | 256° |
| 2026-05-05 19:35 | 52.30114 | 4.78492 | -6 ft | 13 kts | 335° |
| 2026-05-05 19:35 | 52.30205 | 4.78588 | -6 ft | 28 kts | 40° |
| 2026-05-05 19:35 | 52.30624 | 4.79189 | -7 ft | 128 kts | 42° |
| 2026-05-05 19:35 | 52.31307 | 4.80208 | 484 ft | 136 kts | 40° |
| 2026-05-05 19:36 | 52.31865 | 4.81599 | 998 ft | 159 kts | 63° |
| 2026-05-05 19:36 | 52.32014 | 4.83540 | 1555 ft | 189 kts | 90° |
| 2026-05-05 19:36 | 52.31495 | 4.85661 | 2226 ft | 215 kts | 121° |
| 2026-05-05 19:36 | 52.30271 | 4.87179 | 2854 ft | 234 kts | 153° |
| 2026-05-05 19:37 | 52.28637 | 4.87657 | 3490 ft | 240 kts | 171° |
| 2026-05-05 19:37 | 52.26934 | 4.87909 | 4338 ft | 249 kts | 171° |
| 2026-05-05 19:37 | 52.25222 | 4.88262 | 5502 ft | 247 kts | 168° |
| 2026-05-05 19:37 | 52.23517 | 4.88761 | 6595 ft | 246 kts | 169° |
| 2026-05-05 19:38 | 52.21882 | 4.89682 | 7401 ft | 261 kts | 147° |
| 2026-05-05 19:38 | 52.20402 | 4.91553 | 8000 ft | 283 kts | 137° |
| 2026-05-05 19:38 | 52.18904 | 4.93661 | 9165 ft | 285 kts | 139° |
| 2026-05-05 19:38 | 52.17343 | 4.95694 | 10216 ft | 288 kts | 142° |
| 2026-05-05 19:39 | 52.15698 | 4.97764 | 10647 ft | 311 kts | 142° |
| 2026-05-05 19:39 | 52.13920 | 5.00053 | 10849 ft | 339 kts | 141° |
| 2026-05-05 19:39 | 52.12022 | 5.02530 | 11236 ft | 354 kts | 141° |
| 2026-05-05 19:39 | 52.10063 | 5.04955 | 12051 ft | 356 kts | 146° |
| 2026-05-05 19:40 | 52.07732 | 5.06429 | 12698 ft | 362 kts | 165° |
| 2026-05-05 19:40 | 52.05288 | 5.07445 | 13511 ft | 364 kts | 165° |
| 2026-05-05 19:40 | 52.02825 | 5.08532 | 14162 ft | 369 kts | 163° |
| 2026-05-05 19:40 | 52.00345 | 5.09683 | 14858 ft | 372 kts | 163° |
| 2026-05-05 19:41 | 51.97837 | 5.10816 | 15539 ft | 375 kts | 163° |
| 2026-05-05 19:41 | 51.95341 | 5.11909 | 16245 ft | 378 kts | 164° |
| 2026-05-05 19:41 | 51.92792 | 5.13036 | 16984 ft | 381 kts | 163° |
| 2026-05-05 19:41 | 51.90243 | 5.14180 | 17857 ft | 381 kts | 163° |
| 2026-05-05 19:42 | 51.87675 | 5.15326 | 18588 ft | 383 kts | 163° |
| 2026-05-05 19:42 | 51.85097 | 5.16465 | 19287 ft | 386 kts | 164° |
| 2026-05-05 19:42 | 51.82488 | 5.17618 | 19910 ft | 391 kts | 164° |
| 2026-05-05 19:42 | 51.79863 | 5.18782 | 20738 ft | 392 kts | 165° |
| 2026-05-05 19:43 | 51.77213 | 5.19956 | 21324 ft | 398 kts | 165° |
| 2026-05-05 19:43 | 51.74525 | 5.21142 | 21941 ft | 403 kts | 165° |
| 2026-05-05 19:43 | 51.71802 | 5.22343 | 22659 ft | 405 kts | 166° |
| 2026-05-05 19:43 | 51.69080 | 5.23541 | 23370 ft | 408 kts | 166° |
| 2026-05-05 19:44 | 51.66315 | 5.24757 | 23857 ft | 414 kts | 166° |
| 2026-05-05 19:44 | 51.63519 | 5.25987 | 24508 ft | 414 kts | 166° |
| 2026-05-05 19:44 | 51.60776 | 5.27191 | 25116 ft | 416 kts | 166° |
| 2026-05-05 19:44 | 51.57959 | 5.28424 | 25638 ft | 419 kts | 165° |
| 2026-05-05 19:45 | 51.55135 | 5.29661 | 26201 ft | 422 kts | 165° |
| 2026-05-05 19:45 | 51.52298 | 5.30902 | 26869 ft | 422 kts | 165° |
| 2026-05-05 19:45 | 51.49450 | 5.32146 | 27447 ft | 425 kts | 165° |
| 2026-05-05 19:45 | 51.46590 | 5.33392 | 28011 ft | 428 kts | 165° |
| 2026-05-05 19:46 | 51.43704 | 5.34648 | 28579 ft | 431 kts | 164° |
| 2026-05-05 19:46 | 51.40798 | 5.35913 | 29136 ft | 434 kts | 164° |
| 2026-05-05 19:46 | 51.37872 | 5.37184 | 29689 ft | 437 kts | 164° |
| 2026-05-05 19:46 | 51.34969 | 5.38449 | 30181 ft | 440 kts | 164° |
| 2026-05-05 19:47 | 51.32010 | 5.39741 | 30641 ft | 442 kts | 164° |
| 2026-05-05 19:47 | 51.29043 | 5.41032 | 31249 ft | 440 kts | 164° |
| 2026-05-05 19:47 | 51.26104 | 5.42272 | 32014 ft | 435 kts | 166° |
| 2026-05-05 19:47 | 51.23150 | 5.43256 | 32725 ft | 432 kts | 168° |
| 2026-05-05 19:48 | 51.20217 | 5.44218 | 33487 ft | 429 kts | 167° |
| 2026-05-05 19:48 | 51.17312 | 5.45273 | 34076 ft | 427 kts | 164° |
| 2026-05-05 19:48 | 51.14446 | 5.46556 | 34526 ft | 428 kts | 164° |
| 2026-05-05 19:48 | 51.11567 | 5.47831 | 34971 ft | 430 kts | 165° |
| 2026-05-05 19:49 | 51.08673 | 5.49079 | 35424 ft | 432 kts | 165° |
| 2026-05-05 19:49 | 51.05768 | 5.50333 | 35885 ft | 433 kts | 165° |
| 2026-05-05 19:49 | 51.02857 | 5.51609 | 36352 ft | 435 kts | 165° |
| 2026-05-05 19:49 | 50.99919 | 5.52894 | 36824 ft | 437 kts | 165° |
| 2026-05-05 19:50 | 50.96986 | 5.54164 | 37301 ft | 439 kts | 166° |
| 2026-05-05 19:50 | 50.94035 | 5.55439 | 37794 ft | 440 kts | 166° |
| 2026-05-05 19:50 | 50.91072 | 5.56724 | 38293 ft | 442 kts | 166° |
| 2026-05-05 19:50 | 50.88130 | 5.58000 | 38733 ft | 444 kts | 166° |
| 2026-05-05 19:51 | 50.85124 | 5.59297 | 38903 ft | 452 kts | 166° |
| 2026-05-05 19:51 | 50.82050 | 5.60620 | 38903 ft | 464 kts | 166° |
| 2026-05-05 19:51 | 50.78900 | 5.61977 | 38908 ft | 475 kts | 166° |
| 2026-05-05 19:52 | 50.72394 | 5.64778 | 38920 ft | 492 kts | 166° |
| 2026-05-05 19:52 | 50.65764 | 5.67728 | 38920 ft | 502 kts | 164° |
| 2026-05-05 19:53 | 50.59019 | 5.70826 | 38910 ft | 505 kts | 165° |
| 2026-05-05 19:53 | 50.52404 | 5.74654 | 38902 ft | 506 kts | 160° |
| 2026-05-05 19:53 | 50.49167 | 5.76594 | 38891 ft | 486 kts | 161° |
| 2026-05-05 19:54 | 50.46055 | 5.78392 | 38933 ft | 467 kts | 161° |
| 2026-05-05 19:54 | 50.43061 | 5.80111 | 39841 ft | 448 kts | 161° |
| 2026-05-05 19:54 | 50.40146 | 5.81819 | 40305 ft | 447 kts | 161° |
| 2026-05-05 19:54 | 50.37231 | 5.83537 | 40695 ft | 449 kts | 161° |
| 2026-05-05 19:55 | 50.34284 | 5.85253 | 40878 ft | 456 kts | 161° |
| 2026-05-05 19:55 | 50.31267 | 5.86996 | 40877 ft | 468 kts | 161° |
| 2026-05-05 19:55 | 50.28179 | 5.88786 | 40882 ft | 478 kts | 161° |
| 2026-05-05 19:56 | 50.21862 | 5.92457 | 40884 ft | 496 kts | 161° |
| 2026-05-05 19:56 | 50.15303 | 5.96242 | 40869 ft | 506 kts | 161° |
| 2026-05-05 19:57 | 50.08673 | 6.00066 | 40881 ft | 508 kts | 161° |
| 2026-05-05 19:57 | 50.02108 | 6.04181 | 40864 ft | 509 kts | 159° |
| 2026-05-05 19:58 | 49.95573 | 6.08274 | 40863 ft | 509 kts | 159° |
| 2026-05-05 19:58 | 49.89005 | 6.12411 | 40860 ft | 509 kts | 159° |
| 2026-05-05 19:59 | 49.82436 | 6.16516 | 40861 ft | 509 kts | 159° |
| 2026-05-05 19:59 | 49.75845 | 6.20632 | 40857 ft | 510 kts | 160° |
| 2026-05-05 20:00 | 49.69256 | 6.24732 | 40851 ft | 510 kts | 160° |
| 2026-05-05 20:00 | 49.62669 | 6.28821 | 40849 ft | 510 kts | 160° |
| 2026-05-05 20:01 | 49.56131 | 6.33081 | 40851 ft | 510 kts | 158° |
| 2026-05-05 20:01 | 49.49587 | 6.37289 | 40856 ft | 510 kts | 159° |
| 2026-05-05 20:02 | 49.43113 | 6.41618 | 40864 ft | 510 kts | 157° |
| 2026-05-05 20:02 | 49.36618 | 6.46004 | 40880 ft | 510 kts | 158° |
| 2026-05-05 20:03 | 49.30121 | 6.50430 | 40879 ft | 511 kts | 158° |
| 2026-05-05 20:03 | 49.23611 | 6.54836 | 40894 ft | 511 kts | 158° |
| 2026-05-05 20:04 | 49.17116 | 6.59218 | 40825 ft | 509 kts | 158° |
| 2026-05-05 20:04 | 49.10623 | 6.63612 | 40816 ft | 510 kts | 158° |
| 2026-05-05 20:05 | 49.04206 | 6.68034 | 40827 ft | 509 kts | 158° |
| 2026-05-05 20:05 | 48.97740 | 6.72447 | 40833 ft | 509 kts | 158° |
| 2026-05-05 20:06 | 48.91264 | 6.76863 | 40836 ft | 509 kts | 158° |
| 2026-05-05 20:06 | 48.84791 | 6.81266 | 40831 ft | 509 kts | 158° |
| 2026-05-05 20:07 | 48.78321 | 6.85650 | 40835 ft | 509 kts | 158° |
| 2026-05-05 20:07 | 48.71845 | 6.90030 | 40839 ft | 509 kts | 158° |
| 2026-05-05 20:08 | 48.65434 | 6.94354 | 40833 ft | 486 kts | 158° |
| 2026-05-05 20:08 | 48.62434 | 6.96379 | 40779 ft | 459 kts | 158° |
| 2026-05-05 20:08 | 48.59564 | 6.98306 | 40171 ft | 447 kts | 158° |
| 2026-05-05 20:08 | 48.56725 | 7.00200 | 39164 ft | 447 kts | 158° |
| 2026-05-05 20:09 | 48.53875 | 7.02107 | 38103 ft | 446 kts | 158° |
| 2026-05-05 20:09 | 48.51076 | 7.03986 | 36894 ft | 444 kts | 158° |
| 2026-05-05 20:09 | 48.48264 | 7.05868 | 35687 ft | 443 kts | 158° |
| 2026-05-05 20:09 | 48.45382 | 7.07788 | 34967 ft | 454 kts | 158° |
| 2026-05-05 20:10 | 48.42542 | 7.09684 | 34863 ft | 439 kts | 158° |
| 2026-05-05 20:10 | 48.36923 | 7.13426 | 34858 ft | 444 kts | 158° |
| 2026-05-05 20:11 | 48.31262 | 7.17184 | 34862 ft | 445 kts | 158° |
| 2026-05-05 20:11 | 48.25601 | 7.20936 | 34862 ft | 445 kts | 158° |
| 2026-05-05 20:12 | 48.19966 | 7.24659 | 34857 ft | 445 kts | 158° |
| 2026-05-05 20:12 | 48.14284 | 7.28405 | 34848 ft | 446 kts | 158° |
| 2026-05-05 20:13 | 48.08615 | 7.32134 | 34851 ft | 445 kts | 158° |
| 2026-05-05 20:13 | 48.05790 | 7.33988 | 34748 ft | 439 kts | 158° |
| 2026-05-05 20:13 | 48.03024 | 7.35805 | 33360 ft | 436 kts | 158° |
| 2026-05-05 20:13 | 48.00210 | 7.37643 | 31518 ft | 444 kts | 159° |
| 2026-05-05 20:14 | 47.97374 | 7.39498 | 30326 ft | 440 kts | 159° |
| 2026-05-05 20:14 | 47.94641 | 7.41294 | 29850 ft | 415 kts | 160° |
| 2026-05-05 20:14 | 47.92035 | 7.42996 | 29859 ft | 414 kts | 160° |
| 2026-05-05 20:14 | 47.89336 | 7.44735 | 29869 ft | 430 kts | 160° |
| 2026-05-05 20:15 | 47.86540 | 7.46551 | 29874 ft | 446 kts | 160° |
| 2026-05-05 20:15 | 47.83656 | 7.48439 | 29880 ft | 460 kts | 159° |
| 2026-05-05 20:15 | 47.80713 | 7.50355 | 29886 ft | 473 kts | 159° |
| 2026-05-05 20:15 | 47.77620 | 7.52356 | 29892 ft | 484 kts | 159° |
| 2026-05-05 20:16 | 47.74544 | 7.54347 | 29887 ft | 492 kts | 159° |
| 2026-05-05 20:16 | 47.68304 | 7.58763 | 29880 ft | 500 kts | 158° |
| 2026-05-05 20:17 | 47.61961 | 7.63161 | 29887 ft | 504 kts | 157° |
| 2026-05-05 20:17 | 47.55627 | 7.67662 | 29893 ft | 504 kts | 157° |
| 2026-05-05 20:18 | 47.49254 | 7.72091 | 29879 ft | 507 kts | 158° |
| 2026-05-05 20:18 | 47.42886 | 7.76567 | 29882 ft | 507 kts | 158° |
| 2026-05-05 20:19 | 47.37571 | 7.80259 | 29886 ft | 507 kts | 158° |
| 2026-05-05 20:19 | 47.31192 | 7.84697 | 29898 ft | 508 kts | 158° |
| 2026-05-05 20:20 | 47.24794 | 7.89135 | 29907 ft | 507 kts | 158° |
| 2026-05-05 20:20 | 47.18403 | 7.93554 | 29907 ft | 507 kts | 158° |
| 2026-05-05 20:21 | 47.12051 | 7.97938 | 29921 ft | 507 kts | 158° |
| 2026-05-05 20:21 | 47.05668 | 8.02328 | 29911 ft | 505 kts | 159° |
| 2026-05-05 20:22 | 46.99304 | 8.06693 | 29918 ft | 505 kts | 159° |
| 2026-05-05 20:22 | 46.92925 | 8.11061 | 29918 ft | 505 kts | 159° |
| 2026-05-05 20:23 | 46.86565 | 8.15402 | 29902 ft | 500 kts | 160° |
| 2026-05-05 20:23 | 46.80267 | 8.19690 | 29936 ft | 499 kts | 160° |
| 2026-05-05 20:24 | 46.73962 | 8.23967 | 29942 ft | 500 kts | 160° |
| 2026-05-05 20:24 | 46.67677 | 8.28227 | 29942 ft | 501 kts | 160° |
| 2026-05-05 20:25 | 46.61376 | 8.32483 | 29942 ft | 497 kts | 160° |
| 2026-05-05 20:25 | 46.58344 | 8.34540 | 29732 ft | 465 kts | 160° |
| 2026-05-05 20:25 | 46.55511 | 8.36463 | 29395 ft | 435 kts | 161° |
| 2026-05-05 20:25 | 46.52793 | 8.38276 | 29058 ft | 427 kts | 162° |
| 2026-05-05 20:26 | 46.50073 | 8.40077 | 28739 ft | 429 kts | 161° |
| 2026-05-05 20:26 | 46.47361 | 8.41902 | 28449 ft | 429 kts | 161° |
| 2026-05-05 20:26 | 46.44710 | 8.43696 | 27876 ft | 420 kts | 161° |
| 2026-05-05 20:26 | 46.42083 | 8.45461 | 26257 ft | 417 kts | 160° |
| 2026-05-05 20:27 | 46.39462 | 8.47199 | 24965 ft | 409 kts | 161° |
| 2026-05-05 20:27 | 46.36901 | 8.48909 | 23694 ft | 401 kts | 160° |
| 2026-05-05 20:27 | 46.34399 | 8.50587 | 22283 ft | 392 kts | 160° |
| 2026-05-05 20:27 | 46.31860 | 8.52274 | 21300 ft | 417 kts | 160° |
| 2026-05-05 20:28 | 46.29139 | 8.54070 | 21101 ft | 434 kts | 159° |
| 2026-05-05 20:28 | 46.26381 | 8.55918 | 21099 ft | 438 kts | 159° |
| 2026-05-05 20:28 | 46.23609 | 8.57775 | 21099 ft | 440 kts | 159° |
| 2026-05-05 20:28 | 46.20827 | 8.59618 | 21100 ft | 439 kts | 159° |
| 2026-05-05 20:29 | 46.18152 | 8.61395 | 20890 ft | 404 kts | 159° |
| 2026-05-05 20:29 | 46.15852 | 8.63563 | 19915 ft | 390 kts | 144° |
| 2026-05-05 20:29 | 46.13941 | 8.66335 | 18556 ft | 390 kts | 136° |
| 2026-05-05 20:29 | 46.12210 | 8.69250 | 17187 ft | 385 kts | 134° |
| 2026-05-05 20:30 | 46.10525 | 8.72193 | 15895 ft | 377 kts | 133° |
| 2026-05-05 20:30 | 46.08867 | 8.75082 | 14666 ft | 370 kts | 133° |
| 2026-05-05 20:30 | 46.07208 | 8.77933 | 13555 ft | 381 kts | 133° |
| 2026-05-05 20:30 | 46.05413 | 8.80960 | 13006 ft | 406 kts | 133° |
| 2026-05-05 20:31 | 46.03649 | 8.83917 | 13006 ft | 369 kts | 133° |
| 2026-05-05 20:31 | 46.02062 | 8.86599 | 12984 ft | 337 kts | 133° |
| 2026-05-05 20:31 | 46.00558 | 8.89152 | 12980 ft | 333 kts | 133° |
| 2026-05-05 20:31 | 45.99065 | 8.91683 | 12988 ft | 334 kts | 133° |
| 2026-05-05 20:32 | 45.97561 | 8.94231 | 12986 ft | 334 kts | 133° |
| 2026-05-05 20:32 | 45.96057 | 8.96779 | 12988 ft | 334 kts | 133° |
| 2026-05-05 20:32 | 45.94554 | 8.99326 | 12995 ft | 334 kts | 133° |
| 2026-05-05 20:32 | 45.93050 | 9.01873 | 12996 ft | 335 kts | 133° |
| 2026-05-05 20:33 | 45.91499 | 9.04489 | 12998 ft | 346 kts | 133° |
| 2026-05-05 20:33 | 45.89936 | 9.07122 | 12999 ft | 346 kts | 133° |
| 2026-05-05 20:33 | 45.88365 | 9.09768 | 12996 ft | 358 kts | 133° |
| 2026-05-05 20:33 | 45.86746 | 9.12486 | 12988 ft | 358 kts | 133° |
| 2026-05-05 20:34 | 45.85145 | 9.15165 | 12991 ft | 359 kts | 133° |
| 2026-05-05 20:34 | 45.83508 | 9.17895 | 12998 ft | 361 kts | 133° |
| 2026-05-05 20:34 | 45.81877 | 9.20614 | 12994 ft | 360 kts | 133° |
| 2026-05-05 20:34 | 45.80241 | 9.23344 | 12997 ft | 358 kts | 133° |
| 2026-05-05 20:35 | 45.78615 | 9.26057 | 12992 ft | 359 kts | 133° |
| 2026-05-05 20:35 | 45.76989 | 9.28769 | 12990 ft | 359 kts | 133° |
| 2026-05-05 20:35 | 45.75365 | 9.31476 | 12993 ft | 358 kts | 133° |
| 2026-05-05 20:35 | 45.73444 | 9.33655 | 12933 ft | 350 kts | 157° |
| 2026-05-05 20:36 | 45.71120 | 9.34559 | 12987 ft | 346 kts | 173° |
| 2026-05-05 20:36 | 45.68734 | 9.35059 | 13001 ft | 347 kts | 174° |
| 2026-05-05 20:36 | 45.66361 | 9.35701 | 12998 ft | 348 kts | 169° |
| 2026-05-05 20:36 | 45.64027 | 9.36665 | 12999 ft | 349 kts | 165° |
| 2026-05-05 20:37 | 45.61706 | 9.37658 | 13101 ft | 348 kts | 167° |
| 2026-05-05 20:37 | 45.59388 | 9.38492 | 13107 ft | 348 kts | 169° |
| 2026-05-05 20:37 | 45.57037 | 9.39303 | 13108 ft | 347 kts | 168° |
| 2026-05-05 20:37 | 45.54696 | 9.40182 | 13095 ft | 348 kts | 167° |
| 2026-05-05 20:38 | 45.52370 | 9.41044 | 12934 ft | 337 kts | 170° |
| 2026-05-05 20:38 | 45.50074 | 9.41423 | 11481 ft | 335 kts | 178° |
| 2026-05-05 20:38 | 45.47750 | 9.41555 | 10314 ft | 331 kts | 179° |
| 2026-05-05 20:38 | 45.45474 | 9.41747 | 9148 ft | 325 kts | 177° |
| 2026-05-05 20:39 | 45.43209 | 9.42039 | 7978 ft | 332 kts | 176° |
| 2026-05-05 20:39 | 45.41123 | 9.42297 | 6731 ft | 268 kts | 177° |
| 2026-05-05 20:39 | 45.39326 | 9.42472 | 5929 ft | 250 kts | 178° |
| 2026-05-05 20:39 | 45.37654 | 9.42637 | 5615 ft | 236 kts | 177° |
| 2026-05-05 20:40 | 45.36005 | 9.42814 | 4987 ft | 239 kts | 176° |
| 2026-05-05 20:40 | 45.34358 | 9.42994 | 4444 ft | 236 kts | 176° |
| 2026-05-05 20:40 | 45.32718 | 9.43170 | 3857 ft | 236 kts | 175° |
| 2026-05-05 20:40 | 45.31080 | 9.43344 | 3311 ft | 237 kts | 174° |
| 2026-05-05 20:41 | 45.29473 | 9.43515 | 3009 ft | 226 kts | 174° |
| 2026-05-05 20:41 | 45.27965 | 9.43675 | 3001 ft | 211 kts | 174° |
| 2026-05-05 20:41 | 45.26505 | 9.43832 | 2990 ft | 211 kts | 174° |
| 2026-05-05 20:41 | 45.25037 | 9.43931 | 2951 ft | 213 kts | 183° |
| 2026-05-05 20:42 | 45.23803 | 9.42987 | 2855 ft | 199 kts | 229° |
| 2026-05-05 20:42 | 45.23438 | 9.41231 | 2866 ft | 177 kts | 265° |
| 2026-05-05 20:42 | 45.23389 | 9.39545 | 2979 ft | 167 kts | 266° |
| 2026-05-05 20:42 | 45.23795 | 9.37979 | 2919 ft | 174 kts | 304° |
| 2026-05-05 20:43 | 45.24532 | 9.36486 | 3011 ft | 191 kts | 304° |
| 2026-05-05 20:43 | 45.25240 | 9.34984 | 2975 ft | 176 kts | 303° |
| 2026-05-05 20:43 | 45.25910 | 9.33564 | 2974 ft | 171 kts | 303° |
| 2026-05-05 20:43 | 45.26575 | 9.32155 | 2979 ft | 171 kts | 303° |
| 2026-05-05 20:44 | 45.27243 | 9.30744 | 2979 ft | 174 kts | 303° |
| 2026-05-05 20:44 | 45.27953 | 9.29349 | 2945 ft | 175 kts | 315° |
| 2026-05-05 20:44 | 45.29086 | 9.28868 | 2795 ft | 173 kts | 12° |
| 2026-05-05 20:44 | 45.30213 | 9.29207 | 2898 ft | 165 kts | 2° |
| 2026-05-05 20:45 | 45.32638 | 9.28983 | 2555 ft | 182 kts | 358° |
| 2026-05-05 20:45 | 45.33847 | 9.28852 | 2291 ft | 166 kts | 358° |
| 2026-05-05 20:45 | 45.34902 | 9.28732 | 2051 ft | 140 kts | 359° |
| 2026-05-05 20:46 | 45.35830 | 9.28636 | 1885 ft | 129 kts | 0° |
| 2026-05-05 20:46 | 45.36737 | 9.28541 | 1726 ft | 133 kts | 359° |
| 2026-05-05 20:46 | 45.37659 | 9.28434 | 1532 ft | 130 kts | 359° |
| 2026-05-05 20:46 | 45.38540 | 9.28335 | 1372 ft | 125 kts | 0° |
| 2026-05-05 20:47 | 45.39409 | 9.28254 | 1208 ft | 124 kts | 0° |
| 2026-05-05 20:47 | 45.40278 | 9.28159 | 1051 ft | 127 kts | 359° |
| 2026-05-05 20:47 | 45.41165 | 9.28070 | 901 ft | 127 kts | 359° |
| 2026-05-05 20:47 | 45.42037 | 9.27980 | 735 ft | 125 kts | 358° |
| 2026-05-05 20:48 | 45.42878 | 9.27886 | 538 ft | 118 kts | 357° |
| 2026-05-05 20:48 | 45.43695 | 9.27797 | 373 ft | 115 kts | 358° |
| 2026-05-05 20:48 | 45.44373 | 9.27724 | 363 ft | 78 kts | 356° |
| 2026-05-05 20:48 | 45.44769 | 9.27676 | 363 ft | 30 kts | 349° |
| 2026-05-05 20:49 | 45.44913 | 9.27557 | 363 ft | 16 kts | 317° |
| 2026-05-05 20:49 | 45.44979 | 9.27450 | 363 ft | 14 kts | 303° |
| 2026-05-05 20:49 | 45.45034 | 9.27335 | 363 ft | 14 kts | 302° |
| 2026-05-05 20:49 | 45.45078 | 9.27213 | 368 ft | 14 kts | 297° |
| 2026-05-05 20:50 | 45.45116 | 9.27088 | 363 ft | 14 kts | 291° |
| 2026-05-05 20:50 | 45.45152 | 9.26962 | 365 ft | 14 kts | 292° |
| 2026-05-05 20:50 | 45.45166 | 9.26838 | 363 ft | 12 kts | 262° |
| 2026-05-05 20:50 | 45.45160 | 9.26735 | 363 ft | 9 kts | 276° |
| 2026-05-05 20:51 | 45.45184 | 9.26654 | 370 ft | 9 kts | 296° |
| 2026-05-05 20:51 | 45.45210 | 9.26575 | 367 ft | 9 kts | 297° |
| 2026-05-05 20:51 | 45.45239 | 9.26490 | 366 ft | 11 kts | 295° |
| 2026-05-05 20:51 | 45.45279 | 9.26397 | 363 ft | 11 kts | 311° |
| 2026-05-05 20:52 | 45.45341 | 9.26332 | 363 ft | 11 kts | 334° |
| 2026-05-05 20:52 | 45.45412 | 9.26287 | 365 ft | 11 kts | 334° |
| 2026-05-05 20:52 | 45.45455 | 9.26251 | 368 ft | 3 kts | 305° |
| 2026-05-05 20:52 | 45.45453 | 9.26226 | 367 ft | 2 kts | 249° |
| 2026-05-05 20:53 | 45.45445 | 9.26204 | 367 ft | 3 kts | 244° |
| 2026-05-05 20:53 | 45.45439 | 9.26186 | 364 ft | 1 kts | 244° |